Time;durP1;ratioP1;P1;durP2;ratioP2;P2;SDS_P1;SDS_P2;PMS_P1;PMS_P2;Temp;Humidity;BMP_temperature;BMP_pressure;BME280_temperature;BME280_humidity;BME280_pressure;Samples;Min_cycle;Max_cycle;Signal;HPM_P1;HPM_P2
2022/11/04 00:01:13;;;;;;;19.48;10.18;;;;;;;;;;5013970;28;20429;-75
2022/11/04 00:03:38;;;;;;;16.67;9.55;;;;;;;;;;5014942;28;20121;-74
2022/11/04 00:06:05;;;;;;;17.98;10.00;;;;;;;;;;5014568;28;20101;-75
2022/11/04 00:08:30;;;;;;;17.83;10.25;;;;;;;;;;5014346;28;20028;-69
2022/11/04 00:13:41;;;;;;;18.45;10.20;;;;;;;;;;5014219;28;20076;-70
2022/11/04 00:18:50;;;;;;;18.63;10.82;;;;;;;;;;5014406;28;20058;-69
2022/11/04 00:29:27;;;;;;;20.58;11.98;;;;;;;;;;5012621;28;20041;-69
2022/11/04 00:34:36;;;;;;;17.38;10.73;;;;;;;;;;5014251;28;20112;-68
2022/11/04 00:37:02;;;;;;;18.30;11.88;;;;;;;;;;5014000;28;20141;-69
2022/11/04 00:39:27;;;;;;;22.95;11.88;;;;;;;;;;5014185;28;20061;-68
2022/11/04 00:41:53;;;;;;;19.42;11.80;;;;;;;;;;5014465;28;20033;-69
2022/11/04 00:44:18;;;;;;;17.65;11.38;;;;;;;;;;4996795;28;20459;-74
2022/11/04 00:46:44;;;;;;;17.05;10.70;;;;;;;;;;5012881;28;20036;-74
2022/11/04 00:49:11;;;;;;;19.08;11.13;;;;;;;;;;5014405;28;20109;-74
2022/11/04 00:51:37;;;;;;;18.02;11.18;;;;;;;;;;5014246;28;20053;-74
2022/11/04 00:54:02;;;;;;;17.48;10.70;;;;;;;;;;5014106;28;20060;-74
2022/11/04 00:56:27;;;;;;;21.30;11.85;;;;;;;;;;5014264;28;20420;-68
2022/11/04 00:58:53;;;;;;;21.42;12.52;;;;;;;;;;5014062;28;20060;-67
2022/11/04 01:01:18;;;;;;;25.63;14.55;;;;;;;;;;5020952;28;20026;-70
2022/11/04 01:03:44;;;;;;;28.52;15.48;;;;;;;;;;5033643;28;20052;-70
2022/11/04 01:06:10;;;;;;;34.67;17.75;;;;;;;;;;5033439;28;20047;-70
2022/11/04 01:08:35;;;;;;;28.13;14.68;;;;;;;;;;5036421;28;20465;-70
2022/11/04 01:11:04;;;;;;;31.65;15.90;;;;;;;;;;5037864;28;20135;-70
2022/11/04 01:13:30;;;;;;;24.02;13.98;;;;;;;;;;5037927;28;20141;-70
2022/11/04 01:15:58;;;;;;;24.77;14.10;;;;;;;;;;5037635;28;20481;-69
2022/11/04 01:18:24;;;;;;;24.67;13.80;;;;;;;;;;5037930;28;20029;-69
2022/11/04 01:20:49;;;;;;;20.70;13.00;;;;;;;;;;5037874;28;20022;-69
2022/11/04 01:23:15;;;;;;;21.13;12.18;;;;;;;;;;5035683;28;20491;-74
2022/11/04 01:25:41;;;;;;;20.10;11.63;;;;;;;;;;5037608;28;20100;-75
2022/11/04 01:28:06;;;;;;;17.73;11.55;;;;;;;;;;5037492;28;20458;-75
2022/11/04 01:30:32;;;;;;;20.10;12.30;;;;;;;;;;5036473;28;20445;-75
2022/11/04 01:32:57;;;;;;;17.60;10.70;;;;;;;;;;5037247;28;20040;-75
2022/11/04 01:35:23;;;;;;;17.33;11.35;;;;;;;;;;5038639;28;20021;-75
2022/11/04 01:37:48;;;;;;;19.48;11.02;;;;;;;;;;5040117;28;20432;-74
2022/11/04 01:40:13;;;;;;;16.45;10.18;;;;;;;;;;5037433;28;20022;-73
2022/11/04 01:42:39;;;;;;;18.38;10.45;;;;;;;;;;5037119;28;20108;-73
2022/11/04 01:45:11;;;;;;;17.55;10.82;;;;;;;;;;5036914;28;20467;-73
2022/11/04 01:47:36;;;;;;;20.00;10.55;;;;;;;;;;5037096;28;20454;-73
2022/11/04 01:50:02;;;;;;;19.15;12.10;;;;;;;;;;5037391;28;20025;-73
2022/11/04 01:52:30;;;;;;;16.90;10.63;;;;;;;;;;5036968;28;20037;-74
2022/11/04 01:54:57;;;;;;;21.63;12.13;;;;;;;;;;5037076;28;20017;-73
2022/11/04 01:57:26;;;;;;;23.88;13.95;;;;;;;;;;5036469;28;20040;-73
2022/11/04 01:59:52;;;;;;;23.10;13.80;;;;;;;;;;5035751;28;20486;-74
2022/11/04 02:02:17;;;;;;;17.08;11.38;;;;;;;;;;5035533;28;20124;-74
2022/11/04 02:04:42;;;;;;;27.52;14.15;;;;;;;;;;5036950;28;20096;-74
2022/11/04 02:07:09;;;;;;;24.85;13.10;;;;;;;;;;5036617;28;20045;-74
2022/11/04 02:09:35;;;;;;;23.08;12.23;;;;;;;;;;5035779;28;20453;-74
2022/11/04 02:14:46;;;;;;;20.95;13.02;;;;;;;;;;5036638;28;20069;-68
2022/11/04 02:17:18;;;;;;;16.98;11.25;;;;;;;;;;5036112;28;20022;-68
2022/11/04 02:20:02;;;;;;;19.80;11.25;;;;;;;;;;5035773;28;20069;-68
2022/11/04 02:22:30;;;;;;;20.45;11.52;;;;;;;;;;5036172;28;20442;-69
2022/11/04 02:25:02;;;;;;;18.65;11.70;;;;;;;;;;5035197;28;20469;-68
2022/11/04 02:27:47;;;;;;;17.98;11.57;;;;;;;;;;5035384;28;20485;-75
2022/11/04 02:30:14;;;;;;;16.80;9.57;;;;;;;;;;5034337;28;20104;-75
2022/11/04 02:32:58;;;;;;;14.75;9.82;;;;;;;;;;5036175;28;20104;-75
2022/11/04 02:35:42;;;;;;;16.95;9.55;;;;;;;;;;5035957;28;20084;-75
2022/11/04 02:38:20;;;;;;;15.43;9.00;;;;;;;;;;5036448;28;20033;-74
2022/11/04 02:41:04;;;;;;;13.05;8.88;;;;;;;;;;5034588;28;20034;-77
2022/11/04 02:43:36;;;;;;;13.27;9.48;;;;;;;;;;5034936;28;20034;-76
2022/11/04 02:46:09;;;;;;;12.75;9.48;;;;;;;;;;5034740;28;20068;-76
2022/11/04 02:48:40;;;;;;;13.52;9.57;;;;;;;;;;5036031;28;20056;-76
2022/11/04 02:51:06;;;;;;;15.45;9.70;;;;;;;;;;5035986;28;20120;-76
2022/11/04 02:53:40;;;;;;;14.88;8.80;;;;;;;;;;5035546;28;20100;-75
2022/11/04 02:56:06;;;;;;;13.68;8.35;;;;;;;;;;5034317;28;20508;-70
2022/11/04 02:58:40;;;;;;;17.17;9.38;;;;;;;;;;5035437;28;20113;-69
2022/11/04 03:01:06;;;;;;;13.70;8.73;;;;;;;;;;5035765;28;20075;-69
2022/11/04 03:03:38;;;;;;;12.95;8.82;;;;;;;;;;5035616;28;20013;-69
2022/11/04 03:06:05;;;;;;;14.20;8.88;;;;;;;;;;5035662;28;20033;-68
2022/11/04 03:08:38;;;;;;;13.65;9.05;;;;;;;;;;5035484;28;20025;-70
2022/11/04 03:11:08;;;;;;;14.88;8.40;;;;;;;;;;5035542;28;20029;-70
2022/11/04 03:13:34;;;;;;;;;;;;;;;;;;5035836;28;20030;-70
2022/11/04 03:16:02;;;;;;;12.73;8.30;;;;;;;;;;5035458;28;19963;-70
2022/11/04 03:18:46;;;;;;;12.73;8.88;;;;;;;;;;5035207;28;20017;-70
2022/11/04 03:21:12;;;;;;;12.20;8.32;;;;;;;;;;5035147;28;20033;-70
2022/11/04 03:23:38;;;;;;;19.63;11.13;;;;;;;;;;5035167;28;20087;-70
2022/11/04 03:26:22;;;;;;;18.63;12.73;;;;;;;;;;5034230;28;20036;-70
2022/11/04 03:28:56;;;;;;;16.65;9.50;;;;;;;;;;5035049;28;20041;-70
2022/11/04 03:31:24;;;;;;;15.02;8.55;;;;;;;;;;5034033;28;20100;-70
2022/11/04 03:33:49;;;;;;;12.50;7.60;;;;;;;;;;5034997;28;20049;-70
2022/11/04 03:36:16;;;;;;;12.77;8.48;;;;;;;;;;5034843;28;20049;-70
2022/11/04 03:38:41;;;;;;;11.18;7.80;;;;;;;;;;5033878;28;20036;-70
2022/11/04 03:41:18;;;;;;;12.30;8.52;;;;;;;;;;5034689;28;20029;-70
2022/11/04 03:43:44;;;;;;;13.15;7.95;;;;;;;;;;5033788;28;20041;-68
2022/11/04 03:46:09;;;;;;;13.10;9.45;;;;;;;;;;5033698;28;20017;-68
2022/11/04 03:48:35;;;;;;;11.35;7.65;;;;;;;;;;5017081;28;20465;-68
2022/11/04 03:51:00;;;;;;;9.30;7.30;;;;;;;;;;5033494;28;20374;-68
2022/11/04 03:53:27;;;;;;;12.63;7.90;;;;;;;;;;5034903;28;20060;-68
2022/11/04 03:56:09;;;;;;;12.52;7.45;;;;;;;;;;5016825;28;20067;-69
2022/11/04 03:58:34;;;;;;;11.32;7.50;;;;;;;;;;5034222;28;20032;-69
2022/11/04 04:01:08;;;;;;;10.75;7.43;;;;;;;;;;5034187;28;20013;-69
2022/11/04 04:03:39;;;;;;;9.00;7.20;;;;;;;;;;5034373;28;20500;-70
2022/11/04 04:06:09;;;;;;;11.50;7.80;;;;;;;;;;5034559;28;20049;-69
2022/11/04 04:08:37;;;;;;;13.25;6.93;;;;;;;;;;5034747;28;20018;-70
2022/11/04 04:11:09;;;;;;;10.00;7.35;;;;;;;;;;5034247;28;20030;-70
2022/11/04 04:13:53;;;;;;;9.63;7.55;;;;;;;;;;5034469;28;20025;-69
2022/11/04 04:16:37;;;;;;;10.43;6.97;;;;;;;;;;5034420;28;20104;-67
2022/11/04 04:19:09;;;;;;;9.82;7.20;;;;;;;;;;5034358;28;20033;-67
2022/11/04 04:21:39;;;;;;;10.70;7.22;;;;;;;;;;5032843;28;20069;-69
2022/11/04 04:29:36;;;;;;;10.68;7.07;;;;;;;;;;5034044;28;20121;-69
2022/11/04 04:32:02;;;;;;;9.27;7.03;;;;;;;;;;5034829;28;20056;-68
2022/11/04 04:34:28;;;;;;;11.02;6.88;;;;;;;;;;5034410;28;20026;-68
2022/11/04 04:37:12;;;;;;;14.15;7.18;;;;;;;;;;5034386;28;20060;-67
2022/11/04 04:45:06;;;;;;;12.20;6.90;;;;;;;;;;5034107;28;20033;-70
2022/11/04 04:47:58;;;;;;;10.55;7.05;;;;;;;;;;5033274;28;20092;-71
2022/11/04 04:50:26;;;;;;;8.88;6.60;;;;;;;;;;5022784;28;20056;-69
2022/11/04 04:52:52;;;;;;;8.98;6.82;;;;;;;;;;5031117;28;20057;-70
2022/11/04 04:55:19;;;;;;;9.10;7.80;;;;;;;;;;5030696;28;20037;-69
2022/11/04 04:57:45;;;;;;;10.98;7.47;;;;;;;;;;5030766;28;20021;-69
2022/11/04 05:00:12;;;;;;;9.77;7.05;;;;;;;;;;5033026;28;20420;-69
2022/11/04 05:02:37;;;;;;;12.18;7.35;;;;;;;;;;5032302;28;20025;-69
2022/11/04 05:05:02;;;;;;;8.32;6.88;;;;;;;;;;5032305;28;20084;-69
2022/11/04 05:07:28;;;;;;;11.43;7.57;;;;;;;;;;5030801;28;20022;-76
2022/11/04 05:09:53;;;;;;;10.15;7.20;;;;;;;;;;5032211;28;20440;-76
2022/11/04 05:12:19;;;;;;;11.05;7.38;;;;;;;;;;5031032;28;20032;-76
2022/11/04 05:14:44;;;;;;;11.13;7.28;;;;;;;;;;5032305;28;20494;-76
2022/11/04 05:17:10;;;;;;;11.88;7.45;;;;;;;;;;5032135;28;20120;-76
2022/11/04 05:19:35;;;;;;;11.98;6.78;;;;;;;;;;5032204;28;20083;-76
2022/11/04 05:22:01;;;;;;;10.68;6.93;;;;;;;;;;5032083;28;20025;-76
2022/11/04 05:24:26;;;;;;;8.40;6.57;;;;;;;;;;5031986;28;20060;-76
2022/11/04 05:26:52;;;;;;;8.27;6.70;;;;;;;;;;5032070;28;20079;-76
2022/11/04 05:29:17;;;;;;;10.57;6.65;;;;;;;;;;5030757;28;20029;-76
2022/11/04 05:31:42;;;;;;;12.70;7.22;;;;;;;;;;5032222;28;20018;-76
2022/11/04 05:34:11;;;;;;;12.02;9.15;;;;;;;;;;5031438;28;20061;-76
2022/11/04 05:36:37;;;;;;;15.48;11.13;;;;;;;;;;5030596;28;20021;-75
2022/11/04 05:39:02;;;;;;;11.73;8.63;;;;;;;;;;5030025;28;20450;-75
2022/11/04 05:41:28;;;;;;;16.00;10.80;;;;;;;;;;5030014;28;20036;-76
2022/11/04 05:43:54;;;;;;;13.93;8.70;;;;;;;;;;5028708;28;20029;-76
2022/11/04 05:46:20;;;;;;;13.60;8.55;;;;;;;;;;5030174;28;20052;-75
2022/11/04 05:48:45;;;;;;;15.27;9.20;;;;;;;;;;5030877;28;20036;-76
2022/11/04 05:51:14;;;;;;;14.80;9.20;;;;;;;;;;5030908;28;20017;-75
2022/11/04 05:53:40;;;;;;;15.18;9.95;;;;;;;;;;5033160;28;20026;-75
2022/11/04 05:56:05;;;;;;;18.17;10.73;;;;;;;;;;5034433;28;20010;-75
2022/11/04 05:58:30;;;;;;;16.58;9.73;;;;;;;;;;5033037;28;20370;-75
2022/11/04 06:01:10;;;;;;;17.75;9.20;;;;;;;;;;5032292;28;20476;-75
2022/11/04 06:03:35;;;;;;;13.90;9.15;;;;;;;;;;5033444;28;20033;-75
2022/11/04 06:06:00;;;;;;;15.50;9.70;;;;;;;;;;5033378;28;20021;-76
2022/11/04 06:08:26;;;;;;;13.55;9.30;;;;;;;;;;5033491;28;20451;-75
2022/11/04 06:10:51;;;;;;;12.82;8.77;;;;;;;;;;5032482;28;20064;-75
2022/11/04 06:13:16;;;;;;;14.65;9.40;;;;;;;;;;5035378;28;20025;-75
2022/11/04 06:15:41;;;;;;;14.27;9.68;;;;;;;;;;5035114;28;20022;-76
2022/11/04 06:18:07;;;;;;;13.48;8.23;;;;;;;;;;5035081;28;20029;-69
2022/11/04 06:20:32;;;;;;;14.00;9.68;;;;;;;;;;5034410;28;20025;-69
2022/11/04 06:22:58;;;;;;;11.30;7.57;;;;;;;;;;5034621;28;20045;-69
2022/11/04 06:25:24;;;;;;;13.82;8.10;;;;;;;;;;5033535;28;20440;-69
2022/11/04 06:27:49;;;;;;;11.32;9.20;;;;;;;;;;5033682;28;20084;-69
2022/11/04 06:30:14;;;;;;;14.35;8.18;;;;;;;;;;5034801;28;20470;-69
2022/11/04 06:32:40;;;;;;;11.65;8.07;;;;;;;;;;5033590;28;20060;-69
2022/11/04 06:35:07;;;;;;;15.48;10.02;;;;;;;;;;5034712;28;20500;-69
2022/11/04 06:37:33;;;;;;;16.17;9.82;;;;;;;;;;5034710;28;20067;-69
2022/11/04 06:39:59;;;;;;;16.65;10.18;;;;;;;;;;5033190;28;20037;-69
2022/11/04 06:42:25;;;;;;;14.88;8.60;;;;;;;;;;5034845;28;20491;-76
2022/11/04 06:44:51;;;;;;;13.95;9.85;;;;;;;;;;5034305;28;20302;-76
2022/11/04 06:47:17;;;;;;;12.88;8.40;;;;;;;;;;5034230;28;20517;-76
2022/11/04 06:49:42;;;;;;;13.43;9.40;;;;;;;;;;5032902;28;20488;-76
2022/11/04 06:52:08;;;;;;;13.05;8.65;;;;;;;;;;5034156;28;20021;-75
2022/11/04 06:54:34;;;;;;;12.68;8.93;;;;;;;;;;5034307;28;20551;-76
2022/11/04 06:56:59;;;;;;;11.65;7.18;;;;;;;;;;5034280;28;20029;-75
2022/11/04 06:59:24;;;;;;;10.43;8.13;;;;;;;;;;5034239;28;20038;-75
2022/11/04 07:01:50;;;;;;;16.10;9.35;;;;;;;;;;5034163;28;20104;-75
2022/11/04 07:04:16;;;;;;;13.38;8.48;;;;;;;;;;5033932;28;20026;-75
2022/11/04 07:06:42;;;;;;;11.50;6.90;;;;;;;;;;5034433;28;20017;-75
2022/11/04 07:09:09;;;;;;;10.65;7.60;;;;;;;;;;5034490;28;20171;-75
2022/11/04 07:11:35;;;;;;;10.30;7.40;;;;;;;;;;5034477;28;20033;-76
2022/11/04 07:14:00;;;;;;;12.85;7.93;;;;;;;;;;5033768;28;20030;-75
2022/11/04 07:16:25;;;;;;;11.43;8.10;;;;;;;;;;5033946;28;20025;-75
2022/11/04 07:18:53;;;;;;;10.10;7.65;;;;;;;;;;5035550;28;20022;-76
2022/11/04 07:21:18;;;;;;;10.32;7.22;;;;;;;;;;5037417;28;20021;-77
2022/11/04 07:23:44;;;;;;;10.05;7.18;;;;;;;;;;5034550;28;20516;-69
2022/11/04 07:26:10;;;;;;;9.90;7.40;;;;;;;;;;5035053;28;20033;-70
2022/11/04 07:28:35;;;;;;;9.60;7.53;;;;;;;;;;5033843;28;20056;-69
2022/11/04 07:31:01;;;;;;;10.57;6.32;;;;;;;;;;5034531;28;20033;-70
2022/11/04 07:33:27;;;;;;;10.52;6.93;;;;;;;;;;5034842;28;20020;-70
2022/11/04 07:35:53;;;;;;;8.63;6.30;;;;;;;;;;5033479;28;20047;-70
2022/11/04 07:38:19;;;;;;;8.18;6.88;;;;;;;;;;5034589;28;20489;-69
2022/11/04 07:40:44;;;;;;;11.63;8.00;;;;;;;;;;5034650;28;20080;-69
2022/11/04 07:43:09;;;;;;;9.63;7.13;;;;;;;;;;5034430;28;20072;-69
2022/11/04 07:45:36;;;;;;;9.25;7.13;;;;;;;;;;5034561;28;20026;-69
2022/11/04 07:48:01;;;;;;;8.25;6.32;;;;;;;;;;5034326;28;20408;-69
2022/11/04 07:50:27;;;;;;;9.35;6.97;;;;;;;;;;5033456;28;20068;-69
2022/11/04 07:52:52;;;;;;;9.73;7.53;;;;;;;;;;5033980;28;20025;-69
2022/11/04 07:55:18;;;;;;;10.23;6.43;;;;;;;;;;5032538;28;20511;-69
2022/11/04 07:57:44;;;;;;;11.82;6.47;;;;;;;;;;5033789;28;20029;-69
2022/11/04 08:00:10;;;;;;;7.22;5.88;;;;;;;;;;5032634;28;20029;-69
2022/11/04 08:02:37;;;;;;;7.63;6.28;;;;;;;;;;5034149;28;20049;-70
2022/11/04 08:05:05;;;;;;;9.95;5.68;;;;;;;;;;5034394;28;20063;-69
2022/11/04 08:07:30;;;;;;;7.63;5.80;;;;;;;;;;5033220;28;20017;-69
2022/11/04 08:09:56;;;;;;;9.75;5.95;;;;;;;;;;5034079;28;20075;-70
2022/11/04 08:12:23;;;;;;;9.82;6.00;;;;;;;;;;5034258;28;20048;-69
2022/11/04 08:14:48;;;;;;;6.03;5.43;;;;;;;;;;5033963;28;20076;-69
2022/11/04 08:17:14;;;;;;;8.20;5.80;;;;;;;;;;5032005;28;20025;-69
2022/11/04 08:19:39;;;;;;;8.80;5.95;;;;;;;;;;5034150;28;20033;-69
2022/11/04 08:22:04;;;;;;;9.45;6.32;;;;;;;;;;5032937;28;20017;-69
2022/11/04 08:24:30;;;;;;;10.88;6.47;;;;;;;;;;5033624;28;20473;-70
2022/11/04 08:26:55;;;;;;;9.52;5.78;;;;;;;;;;5034089;28;20048;-69
2022/11/04 08:29:21;;;;;;;7.00;5.05;;;;;;;;;;5033780;28;20489;-69
2022/11/04 08:31:46;;;;;;;8.88;5.45;;;;;;;;;;5031748;28;20064;-69
2022/11/04 08:34:13;;;;;;;8.13;5.68;;;;;;;;;;5033732;28;20021;-69
2022/11/04 08:36:41;;;;;;;7.55;4.60;;;;;;;;;;5033968;28;20045;-69
2022/11/04 08:39:08;;;;;;;6.65;4.82;;;;;;;;;;5033905;28;20033;-69
2022/11/04 08:41:34;;;;;;;5.30;4.45;;;;;;;;;;5033873;28;20084;-69
2022/11/04 08:43:59;;;;;;;7.35;4.80;;;;;;;;;;5032991;28;20457;-69
2022/11/04 08:46:30;;;;;;;6.55;4.90;;;;;;;;;;5032341;28;20477;-69
2022/11/04 08:48:55;;;;;;;5.07;4.45;;;;;;;;;;5015878;28;20526;-70
2022/11/04 08:51:22;;;;;;;5.15;4.65;;;;;;;;;;5033464;28;20116;-69
2022/11/04 08:53:47;;;;;;;5.72;5.07;;;;;;;;;;5033494;28;20073;-69
2022/11/04 08:56:15;;;;;;;6.40;4.47;;;;;;;;;;5033509;28;20056;-69
2022/11/04 08:58:41;;;;;;;7.38;4.50;;;;;;;;;;5032287;28;20041;-69
2022/11/04 09:01:06;;;;;;;7.68;4.60;;;;;;;;;;5032027;28;20032;-70
2022/11/04 09:03:33;;;;;;;5.28;4.47;;;;;;;;;;5033344;28;20036;-69
2022/11/04 09:05:59;;;;;;;4.80;4.28;;;;;;;;;;5033343;28;20013;-69
2022/11/04 09:08:24;;;;;;;5.45;4.45;;;;;;;;;;5033301;28;20064;-69
2022/11/04 09:10:50;;;;;;;4.55;4.10;;;;;;;;;;5031983;28;20022;-69
2022/11/04 09:13:15;;;;;;;5.68;4.32;;;;;;;;;;5032555;28;20022;-69
2022/11/04 09:15:41;;;;;;;5.57;4.55;;;;;;;;;;5030806;28;20021;-69
2022/11/04 09:18:06;;;;;;;5.28;4.82;;;;;;;;;;5031957;28;20044;-69
2022/11/04 09:28:12;;;;;;;4.95;3.92;;;;;;;;;;5029763;28;20725;-69
2022/11/04 09:30:38;;;;;;;4.88;4.13;;;;;;;;;;5035688;28;20033;-69
2022/11/04 09:33:03;;;;;;;6.15;4.45;;;;;;;;;;5035902;28;20030;-69
2022/11/04 09:35:29;;;;;;;7.15;4.72;;;;;;;;;;5035806;28;20493;-69
2022/11/04 09:37:54;;;;;;;6.63;4.55;;;;;;;;;;5035840;28;20017;-69
2022/11/04 09:40:21;;;;;;;5.30;4.50;;;;;;;;;;5001571;28;20029;-69
2022/11/04 09:43:05;;;;;;;4.93;4.35;;;;;;;;;;5017964;28;20025;-68
2022/11/04 09:45:31;;;;;;;7.20;4.75;;;;;;;;;;5035704;28;20021;-69
2022/11/04 09:48:07;;;;;;;6.15;4.60;;;;;;;;;;5035586;28;20128;-69
2022/11/04 09:50:43;;;;;;;5.80;4.30;;;;;;;;;;5018126;28;20114;-69
2022/11/04 09:53:16;;;;;;;6.03;4.68;;;;;;;;;;5035289;28;20029;-69
2022/11/04 09:55:52;;;;;;;7.35;4.45;;;;;;;;;;5035854;28;20434;-69
2022/11/04 09:58:18;;;;;;;6.93;5.03;;;;;;;;;;5018182;28;20029;-69
2022/11/04 10:00:47;;;;;;;17.30;10.73;;;;;;;;;;5036238;28;20511;-69
2022/11/04 10:03:19;;;;;;;9.35;5.10;;;;;;;;;;5035407;28;20034;-75
2022/11/04 10:05:52;;;;;;;7.07;4.95;;;;;;;;;;5035402;28;20060;-75
2022/11/04 10:08:27;;;;;;;10.63;6.97;;;;;;;;;;5001497;28;20025;-75
2022/11/04 10:11:05;;;;;;;8.82;4.72;;;;;;;;;;5035831;28;20025;-75
2022/11/04 10:13:37;;;;;;;11.82;5.80;;;;;;;;;;5017593;28;20036;-75
2022/11/04 10:16:02;;;;;;;8.18;4.43;;;;;;;;;;5035078;28;20021;-76
2022/11/04 10:18:27;;;;;;;8.65;5.05;;;;;;;;;;5035027;28;20096;-76
2022/11/04 10:20:53;;;;;;;7.72;4.90;;;;;;;;;;5017374;28;20028;-76
2022/11/04 10:23:20;;;;;;;9.32;4.97;;;;;;;;;;5034875;28;20076;-76
2022/11/04 10:25:47;;;;;;;5.65;4.88;;;;;;;;;;5034854;28;20030;-76
2022/11/04 10:28:17;;;;;;;8.30;5.50;;;;;;;;;;5034965;28;20096;-76
2022/11/04 10:30:45;;;;;;;12.73;6.55;;;;;;;;;;5017106;28;20036;-70
2022/11/04 10:33:24;;;;;;;13.07;7.38;;;;;;;;;;5034826;28;20026;-70
2022/11/04 10:35:58;;;;;;;9.35;5.05;;;;;;;;;;5034703;28;20037;-70
2022/11/04 10:38:30;;;;;;;6.47;5.32;;;;;;;;;;5016237;28;20083;-70
2022/11/04 10:40:56;;;;;;;8.20;5.72;;;;;;;;;;5034607;28;20060;-70
2022/11/04 10:43:27;;;;;;;5.95;4.35;;;;;;;;;;5034538;28;20426;-70
2022/11/04 10:45:52;;;;;;;7.88;5.28;;;;;;;;;;5034597;28;20021;-70
2022/11/04 10:48:22;;;;;;;7.57;5.45;;;;;;;;;;5016399;28;20435;-70
2022/11/04 10:50:52;;;;;;;9.90;7.15;;;;;;;;;;5034520;28;20429;-76
2022/11/04 10:53:19;;;;;;;8.73;5.78;;;;;;;;;;5034427;28;20030;-76
2022/11/04 10:55:48;;;;;;;9.25;5.50;;;;;;;;;;5034058;28;20474;-76
2022/11/04 10:58:34;;;;;;;10.60;6.35;;;;;;;;;;5016582;28;20106;-76
2022/11/04 11:01:19;;;;;;;9.57;5.95;;;;;;;;;;5016582;28;20044;-76
2022/11/04 11:03:45;;;;;;;6.22;5.63;;;;;;;;;;5033998;28;20159;-76
2022/11/04 11:06:23;;;;;;;7.43;5.70;;;;;;;;;;5034130;28;20104;-77
2022/11/04 11:08:49;;;;;;;8.15;5.65;;;;;;;;;;5015958;28;20038;-70
2022/11/04 11:11:14;;;;;;;7.57;5.53;;;;;;;;;;5016331;28;20108;-70
2022/11/04 11:13:41;;;;;;;6.28;5.47;;;;;;;;;;5033987;28;20029;-70
2022/11/04 11:16:12;;;;;;;6.57;4.70;;;;;;;;;;5034112;28;20017;-70
2022/11/04 11:18:38;;;;;;;7.57;5.47;;;;;;;;;;5033624;28;20326;-70
2022/11/04 11:21:06;;;;;;;8.30;6.00;;;;;;;;;;5033441;28;20035;-70
2022/11/04 11:23:40;;;;;;;9.18;6.35;;;;;;;;;;5033633;28;20040;-70
2022/11/04 11:26:10;;;;;;;11.35;5.97;;;;;;;;;;5032918;28;20393;-70
2022/11/04 11:28:38;;;;;;;8.55;6.13;;;;;;;;;;5013806;28;20046;-70
2022/11/04 11:31:10;;;;;;;10.88;8.65;;;;;;;;;;5012770;28;20030;-70
2022/11/04 11:33:56;;;;;;;14.80;13.27;;;;;;;;;;5012330;28;20429;-69
2022/11/04 11:36:25;;;;;;;16.65;11.38;;;;;;;;;;5013836;28;20540;-69
2022/11/04 11:39:15;;;;;;;16.00;10.00;;;;;;;;;;5013791;28;20017;-69
2022/11/04 11:42:07;;;;;;;8.32;5.75;;;;;;;;;;5013602;28;20026;-69
2022/11/04 11:44:33;;;;;;;12.45;7.13;;;;;;;;;;5010190;28;20042;-69
2022/11/04 11:47:00;;;;;;;10.45;6.55;;;;;;;;;;5013332;28;20022;-69
2022/11/04 11:49:29;;;;;;;11.07;6.53;;;;;;;;;;5013345;28;20022;-69
2022/11/04 11:51:55;;;;;;;10.30;7.00;;;;;;;;;;5011094;28;20029;-69
2022/11/04 11:54:32;;;;;;;8.40;6.13;;;;;;;;;;5013083;28;20577;-69
2022/11/04 11:57:02;;;;;;;11.30;7.07;;;;;;;;;;5011077;28;20509;-69
2022/11/04 11:59:48;;;;;;;9.68;7.00;;;;;;;;;;5012141;28;20022;-69
2022/11/04 12:02:16;;;;;;;10.23;6.55;;;;;;;;;;5012549;28;20513;-69
2022/11/04 12:04:41;;;;;;;13.32;8.68;;;;;;;;;;5013316;28;20057;-69
2022/11/04 12:07:07;;;;;;;10.77;7.88;;;;;;;;;;5013060;28;20033;-69
2022/11/04 12:09:36;;;;;;;9.38;7.05;;;;;;;;;;5012938;28;20148;-69
2022/11/04 12:12:01;;;;;;;11.52;7.70;;;;;;;;;;5013014;28;20026;-69
2022/11/04 12:14:42;;;;;;;10.95;7.15;;;;;;;;;;5013130;28;20433;-69
2022/11/04 12:17:19;;;;;;;11.27;7.45;;;;;;;;;;5012912;28;20589;-70
2022/11/04 12:19:54;;;;;;;11.18;7.40;;;;;;;;;;5014781;28;20446;-69
2022/11/04 12:22:25;;;;;;;12.55;7.40;;;;;;;;;;5013185;28;20045;-69
2022/11/04 12:24:54;;;;;;;10.40;6.45;;;;;;;;;;5013100;28;20061;-69
2022/11/04 12:27:22;;;;;;;10.93;6.53;;;;;;;;;;5013018;28;20014;-69
2022/11/04 12:30:05;;;;;;;10.98;6.57;;;;;;;;;;5011257;28;20501;-69
2022/11/04 12:32:45;;;;;;;11.55;8.32;;;;;;;;;;5012462;28;20087;-69
2022/11/04 12:35:30;;;;;;;11.65;6.72;;;;;;;;;;5011446;28;20539;-71
2022/11/04 12:38:14;;;;;;;12.82;8.18;;;;;;;;;;5012891;28;20040;-70
2022/11/04 12:40:52;;;;;;;9.20;6.53;;;;;;;;;;5012857;28;20072;-71
2022/11/04 12:43:21;;;;;;;11.30;6.85;;;;;;;;;;5012767;28;20053;-70
2022/11/04 12:45:56;;;;;;;9.43;7.28;;;;;;;;;;5013094;28;20105;-71
2022/11/04 12:48:36;;;;;;;10.73;7.35;;;;;;;;;;5013130;28;20092;-70
2022/11/04 12:51:03;;;;;;;;;;;;;;;;;;5011842;28;20462;-70
2022/11/04 12:54:07;;;;;;;10.07;5.63;;;;;;;;;;5013338;28;20350;-71
2022/11/04 12:56:41;;;;;;;8.80;5.93;;;;;;;;;;4952176;29;20066;-71
2022/11/04 12:59:07;;;;;;;7.65;6.10;;;;;;;;;;4952470;29;20090;-70
2022/11/04 13:01:35;;;;;;;8.35;6.05;;;;;;;;;;4983736;28;20121;-68
2022/11/04 13:04:07;;;;;;;10.20;5.68;;;;;;;;;;5015098;28;20464;-70
2022/11/04 13:06:36;;;;;;;9.00;5.85;;;;;;;;;;5016805;28;20030;-70
2022/11/04 13:09:04;;;;;;;9.38;5.68;;;;;;;;;;5014937;28;20022;-70
2022/11/04 13:11:32;;;;;;;7.47;5.63;;;;;;;;;;5015404;28;20037;-70
2022/11/04 13:14:18;;;;;;;10.05;6.78;;;;;;;;;;5016752;28;20018;-70
2022/11/04 13:16:44;;;;;;;14.20;9.07;;;;;;;;;;5016108;28;20045;-71
2022/11/04 13:19:33;;;;;;;12.45;9.18;;;;;;;;;;5015320;28;20092;-71
2022/11/04 13:22:01;;;;;;;13.57;8.52;;;;;;;;;;5004358;28;20490;-71
2022/11/04 13:24:29;;;;;;;16.58;9.60;;;;;;;;;;5016366;28;20018;-70
2022/11/04 13:26:57;;;;;;;14.43;9.20;;;;;;;;;;5016319;28;20021;-71
2022/11/04 13:29:24;;;;;;;12.55;9.27;;;;;;;;;;5016107;28;20046;-71
2022/11/04 13:31:49;;;;;;;12.70;9.45;;;;;;;;;;5016179;28;20037;-70
2022/11/04 13:34:26;;;;;;;15.75;8.93;;;;;;;;;;5016106;28;20031;-70
2022/11/04 13:37:03;;;;;;;13.15;8.80;;;;;;;;;;5015886;28;20474;-71
2022/11/04 13:39:33;;;;;;;12.88;7.63;;;;;;;;;;5016077;28;20030;-70
2022/11/04 13:42:17;;;;;;;13.65;8.10;;;;;;;;;;5015899;28;20034;-71
2022/11/04 13:44:45;;;;;;;12.80;8.05;;;;;;;;;;5015388;28;20164;-71
2022/11/04 13:47:15;;;;;;;14.82;8.52;;;;;;;;;;5015953;28;20380;-70
2022/11/04 13:49:40;;;;;;;14.30;8.13;;;;;;;;;;5015963;28;20029;-70
2022/11/04 13:52:07;;;;;;;12.85;7.50;;;;;;;;;;5015784;28;20026;-71
2022/11/04 13:54:44;;;;;;;13.32;7.80;;;;;;;;;;5015787;28;20037;-71
2022/11/04 13:57:13;;;;;;;12.43;7.95;;;;;;;;;;5014557;28;20042;-70
2022/11/04 13:59:39;;;;;;;19.45;11.75;;;;;;;;;;5013438;28;20338;-70
2022/11/04 14:02:11;;;;;;;21.92;13.93;;;;;;;;;;5015527;28;20062;-71
2022/11/04 14:04:37;;;;;;;16.48;11.77;;;;;;;;;;5015041;28;20064;-70
2022/11/04 14:07:04;;;;;;;16.02;10.05;;;;;;;;;;5014233;28;20013;-74
2022/11/04 14:09:32;;;;;;;14.70;8.27;;;;;;;;;;5015715;28;20030;-73
2022/11/04 14:12:10;;;;;;;15.68;9.80;;;;;;;;;;5014144;28;20054;-73
2022/11/04 14:14:52;;;;;;;16.60;11.65;;;;;;;;;;5014025;28;20040;-73
2022/11/04 14:17:33;;;;;;;20.13;13.15;;;;;;;;;;5015369;28;20113;-72
2022/11/04 14:20:04;;;;;;;18.08;11.85;;;;;;;;;;5015201;28;20048;-73
2022/11/04 14:22:30;;;;;;;31.23;20.50;;;;;;;;;;5006414;28;20050;-73
2022/11/04 14:25:00;;;;;;;16.48;11.35;;;;;;;;;;4993690;28;20037;-72
2022/11/04 14:27:34;;;;;;;14.65;9.55;;;;;;;;;;4994266;28;20027;-74
2022/11/04 14:29:59;;;;;;;12.07;8.95;;;;;;;;;;4994775;28;20029;-73
2022/11/04 14:32:29;;;;;;;12.90;8.20;;;;;;;;;;4994044;28;20022;-73
2022/11/04 14:35:06;;;;;;;95.15;65.88;;;;;;;;;;4994559;28;20038;-73
2022/11/04 14:37:35;;;;;;;46.47;32.67;;;;;;;;;;4994239;28;20034;-73
2022/11/04 14:40:03;;;;;;;27.13;17.20;;;;;;;;;;4995446;28;20490;-72
2022/11/04 14:42:49;;;;;;;14.63;8.80;;;;;;;;;;4995247;28;20057;-74
2022/11/04 14:45:17;;;;;;;12.00;8.25;;;;;;;;;;4994825;28;20483;-74
2022/11/04 14:47:45;;;;;;;16.33;9.02;;;;;;;;;;4995200;28;20019;-74
2022/11/04 14:50:18;;;;;;;24.98;17.88;;;;;;;;;;4995109;28;20383;-74
2022/11/04 14:52:46;;;;;;;22.67;13.70;;;;;;;;;;4993912;28;20034;-75
2022/11/04 14:55:40;;;;;;;22.20;14.02;;;;;;;;;;4994836;28;20068;-72
2022/11/04 14:58:22;;;;;;;23.08;15.07;;;;;;;;;;4986455;28;20093;-72
2022/11/04 15:00:48;;;;;;;19.05;12.88;;;;;;;;;;4995412;28;20463;-72
2022/11/04 15:03:19;;;;;;;25.63;17.65;;;;;;;;;;4995057;28;20026;-71
2022/11/04 15:05:47;;;;;;;40.97;26.25;;;;;;;;;;4977397;28;20120;-71
2022/11/04 15:08:31;;;;;;;20.50;11.93;;;;;;;;;;4994873;28;20025;-71
2022/11/04 15:10:58;;;;;;;12.45;7.57;;;;;;;;;;4993235;28;20030;-75
2022/11/04 15:13:23;;;;;;;13.68;8.65;;;;;;;;;;4994895;28;20026;-75
2022/11/04 15:15:49;;;;;;;14.13;7.30;;;;;;;;;;4994685;28;20525;-75
2022/11/04 15:18:22;;;;;;;31.45;20.38;;;;;;;;;;4994681;28;20390;-75
2022/11/04 15:20:51;;;;;;;123.97;53.90;;;;;;;;;;4995001;28;20034;-75